createdAt,value
2023-01-07T00:02:58.546Z,79.88
2023-01-07T00:06:02.373Z,80.03
2023-01-07T00:09:06.987Z,79.92
2023-01-07T00:12:08.623Z,80.30
2023-01-07T00:15:10.882Z,80.36
2023-01-07T00:18:12.536Z,80.73
2023-01-07T00:21:17.534Z,80.80
2023-01-07T00:24:19.184Z,81.05
2023-01-07T00:27:20.923Z,81.20
2023-01-07T00:30:23.792Z,80.37
2023-01-07T00:33:28.238Z,80.20
2023-01-07T00:36:33.875Z,80.96
2023-01-07T00:39:35.589Z,80.93
2023-01-07T00:42:55.471Z,81.56
2023-01-07T00:45:57.216Z,81.47
2023-01-07T00:48:59.357Z,81.12
2023-01-07T00:52:01.022Z,81.79
2023-01-07T00:55:02.719Z,82.75
2023-01-07T00:58:05.117Z,83.24
2023-01-07T01:01:07.043Z,82.59
2023-01-07T01:04:08.896Z,81.72
2023-01-07T01:07:10.551Z,82.16
2023-01-07T01:10:15.061Z,82.46
2023-01-07T01:13:18.365Z,82.77
2023-01-07T01:16:20.217Z,82.15
2023-01-07T01:19:21.927Z,82.33
2023-01-07T01:22:23.621Z,81.93
2023-01-07T01:25:25.300Z,82.28
2023-01-07T01:28:27.011Z,81.85
2023-01-07T01:31:28.844Z,82.64
2023-01-07T01:34:30.623Z,83.14
2023-01-07T01:37:32.329Z,83.22
2023-01-07T01:40:34.080Z,83.04
2023-01-07T01:43:38.832Z,84.00
2023-01-07T01:46:44.679Z,84.12
2023-01-07T01:50:04.189Z,84.34
2023-01-07T01:53:16.541Z,82.93
2023-01-07T01:56:23.636Z,82.90
2023-01-07T01:59:34.714Z,81.93
2023-01-07T02:02:48.953Z,82.12
2023-01-07T02:05:51.599Z,82.25
2023-01-07T02:08:53.315Z,82.75
2023-01-07T02:12:26.827Z,83.02
2023-01-07T02:15:46.987Z,83.62
2023-01-07T02:19:12.811Z,84.83
2023-01-07T02:22:20.268Z,84.72
2023-01-07T02:26:19.931Z,85.83
2023-01-07T02:29:57.997Z,83.43
2023-01-07T02:33:17.184Z,83.25
2023-01-07T02:36:41.976Z,84.74
2023-01-07T02:39:59.386Z,85.24
2023-01-07T02:43:16.081Z,85.56
2023-01-07T02:46:37.145Z,85.81
2023-01-07T02:49:38.816Z,84.00
2023-01-07T02:52:40.650Z,83.78
2023-01-07T02:55:58.040Z,84.20
2023-01-07T02:59:21.080Z,85.33
2023-01-07T03:02:41.337Z,85.74
2023-01-07T03:06:13.222Z,85.57
2023-01-07T03:09:22.950Z,85.43
2023-01-07T03:12:34.988Z,85.64
2023-01-07T03:15:41.784Z,85.77
2023-01-07T03:18:52.819Z,84.09
2023-01-07T03:21:56.347Z,84.21
2023-01-07T03:24:59.634Z,84.01
2023-01-07T03:28:03.885Z,84.43
2023-01-07T03:31:07.986Z,84.72
2023-01-07T03:34:14.556Z,85.10
2023-01-07T03:37:20.651Z,85.32
2023-01-07T03:40:22.408Z,85.42
2023-01-07T03:43:24.110Z,85.72
2023-01-07T03:46:26.004Z,85.70
2023-01-07T03:49:27.708Z,84.73
2023-01-07T03:52:29.397Z,84.59
2023-01-07T03:55:31.205Z,84.50
2023-01-07T03:58:32.845Z,84.84
2023-01-07T04:01:34.705Z,84.24
2023-01-07T04:04:36.800Z,84.75
2023-01-07T04:07:38.633Z,84.25
2023-01-07T04:10:40.412Z,84.61
2023-01-07T04:13:42.149Z,85.37
2023-01-07T04:16:43.898Z,85.10
2023-01-07T04:19:45.629Z,84.98
2023-01-07T04:22:47.334Z,85.15
2023-01-07T04:25:49.996Z,84.69
2023-01-07T04:28:51.672Z,84.71
2023-01-07T04:31:54.100Z,85.34
2023-01-07T04:34:55.778Z,84.16
2023-01-07T04:37:57.566Z,84.69
2023-01-07T04:40:59.372Z,84.67
2023-01-07T04:44:01.040Z,84.39
2023-01-07T04:47:02.737Z,84.63
2023-01-07T04:50:04.833Z,84.70
2023-01-07T04:53:07.855Z,85.00
2023-01-07T04:56:09.539Z,84.77
2023-01-07T04:59:11.208Z,83.80
2023-01-07T05:02:12.973Z,83.44
2023-01-07T05:05:14.707Z,84.05
2023-01-07T05:08:16.485Z,84.34
2023-01-07T05:11:21.681Z,83.72
2023-01-07T05:14:23.538Z,83.35
2023-01-07T05:17:25.197Z,83.33
2023-01-07T05:20:27.422Z,82.95
2023-01-07T05:23:29.108Z,82.94
2023-01-07T05:26:31.008Z,84.61
2023-01-07T05:29:32.775Z,83.91
2023-01-07T05:32:34.432Z,84.02
2023-01-07T05:35:36.125Z,86.31
2023-01-07T05:38:37.879Z,86.18
2023-01-07T05:41:39.597Z,86.51
2023-01-07T05:44:42.526Z,86.95
2023-01-07T05:47:44.267Z,87.23
2023-01-07T05:50:45.941Z,87.74
2023-01-07T05:53:47.548Z,88.40
2023-01-07T05:56:49.263Z,88.16
2023-01-07T05:59:51.059Z,87.61
2023-01-07T06:02:52.754Z,87.40
2023-01-07T06:05:54.438Z,87.68
2023-01-07T06:08:56.087Z,88.02
2023-01-07T06:11:57.964Z,88.27
2023-01-07T06:15:00.002Z,88.43
2023-01-07T06:18:01.793Z,88.56
2023-01-07T06:21:03.816Z,89.07
2023-01-07T06:24:06.135Z,89.35
2023-01-07T06:27:10.241Z,88.73
2023-01-07T06:30:12.448Z,88.58
2023-01-07T06:33:15.591Z,88.81
2023-01-07T06:36:17.310Z,89.28
2023-01-07T06:39:19.141Z,89.10
2023-01-07T06:42:20.876Z,89.11
2023-01-07T06:45:22.675Z,88.54
2023-01-07T06:48:24.348Z,89.08
2023-01-07T06:51:26.049Z,88.39
2023-01-07T06:54:27.733Z,88.41
2023-01-07T06:57:29.437Z,88.51
2023-01-07T07:00:31.106Z,88.23
2023-01-07T07:03:32.902Z,87.82
2023-01-07T07:06:34.566Z,88.52
2023-01-07T07:09:37.085Z,88.00
2023-01-07T07:12:39.340Z,87.26
2023-01-07T07:15:41.292Z,87.30
2023-01-07T07:18:43.072Z,86.90
2023-01-07T07:21:44.813Z,86.11
2023-01-07T07:24:46.485Z,86.84
2023-01-07T07:27:48.319Z,86.32
2023-01-07T07:30:50.024Z,84.56
2023-01-07T07:33:51.753Z,84.29
2023-01-07T07:36:53.379Z,84.64
2023-01-07T07:39:55.044Z,84.83
2023-01-07T07:43:10.665Z,84.67
2023-01-07T07:46:14.559Z,82.97
2023-01-07T07:49:16.305Z,82.07
2023-01-07T07:52:18.440Z,79.97
2023-01-07T07:55:21.395Z,79.38
2023-01-07T07:58:27.852Z,78.77
2023-01-07T08:01:29.871Z,77.63
2023-01-07T08:04:34.210Z,76.62
2023-01-07T08:07:37.670Z,75.57
2023-01-07T08:10:39.584Z,77.17
2023-01-07T08:13:41.258Z,77.47
2023-01-07T08:16:42.970Z,77.52
2023-01-07T08:19:44.903Z,76.96
2023-01-07T08:22:46.630Z,75.48
2023-01-07T08:25:48.384Z,74.57
2023-01-07T08:28:50.100Z,69.77
2023-01-07T08:31:52.005Z,69.62
2023-01-07T08:34:53.890Z,70.61
2023-01-07T08:38:09.121Z,70.89
2023-01-07T08:41:10.804Z,71.83
2023-01-07T08:44:12.720Z,72.91
2023-01-07T08:47:14.640Z,73.05
2023-01-07T08:50:16.337Z,72.66
2023-01-07T08:53:23.791Z,73.01
2023-01-07T08:56:25.456Z,72.09
2023-01-07T08:59:30.071Z,69.81
2023-01-07T09:02:31.807Z,70.37
2023-01-07T09:05:35.267Z,70.88
2023-01-07T09:08:37.355Z,72.16
2023-01-07T09:11:39.073Z,71.84
2023-01-07T09:14:40.907Z,70.25
2023-01-07T09:17:42.619Z,69.55
2023-01-07T09:20:44.913Z,68.21
2023-01-07T09:23:46.667Z,67.73
2023-01-07T09:26:48.332Z,68.62
2023-01-07T09:29:50.543Z,69.16
2023-01-07T09:32:52.250Z,67.50
2023-01-07T09:35:53.942Z,65.04
2023-01-07T09:38:55.686Z,64.25
2023-01-07T09:42:09.777Z,62.67
2023-01-07T09:45:19.995Z,62.42
2023-01-07T09:48:28.799Z,60.10
2023-01-07T09:51:38.775Z,60.26
2023-01-07T09:54:41.132Z,59.76
2023-01-07T09:57:43.235Z,59.09
2023-01-07T10:01:05.530Z,61.19
2023-01-07T10:04:26.001Z,60.22
2023-01-07T10:07:33.260Z,57.47
2023-01-07T10:10:57.411Z,54.49
2023-01-07T10:14:38.047Z,54.73
2023-01-07T10:18:05.188Z,57.60
2023-01-07T10:21:12.477Z,56.10
2023-01-07T10:24:27.508Z,54.50
2023-01-07T10:27:34.443Z,54.50
2023-01-07T10:30:42.674Z,49.54
2023-01-07T10:33:47.100Z,49.45
2023-01-07T10:37:01.837Z,46.27
2023-01-07T10:40:12.614Z,46.94
2023-01-07T10:43:39.332Z,44.53
2023-01-07T10:47:00.542Z,43.89
2023-01-07T10:50:27.750Z,47.57
2023-01-07T10:53:50.479Z,47.79
2023-01-07T10:56:58.171Z,45.02
2023-01-07T11:00:03.943Z,43.99
2023-01-07T11:03:19.773Z,42.78
2023-01-07T11:06:38.991Z,42.39
2023-01-07T11:09:44.062Z,43.14
2023-01-07T11:12:56.812Z,44.94
2023-01-07T11:16:13.554Z,41.65
2023-01-07T11:19:16.475Z,40.07
2023-01-07T11:22:27.091Z,42.51
2023-01-07T11:25:29.408Z,41.78
2023-01-07T11:28:31.949Z,43.44
2023-01-07T11:31:48.925Z,42.92
2023-01-07T11:34:57.073Z,43.44
2023-01-07T11:37:59.798Z,43.91
2023-01-07T11:41:02.216Z,42.40
2023-01-07T11:44:14.841Z,41.21
2023-01-07T11:47:18.390Z,39.56
2023-01-07T11:50:26.550Z,37.17
2023-01-07T11:53:41.811Z,35.39
2023-01-07T11:56:43.560Z,34.84
2023-01-07T11:59:45.337Z,34.90
2023-01-07T12:03:00.553Z,34.61
2023-01-07T12:06:26.592Z,33.46
2023-01-07T12:09:36.423Z,36.02
2023-01-07T12:12:43.967Z,34.60
2023-01-07T12:15:51.449Z,35.22
2023-01-07T12:18:58.929Z,33.93
2023-01-07T12:22:06.414Z,33.26
2023-01-07T12:25:20.262Z,33.05
2023-01-07T12:28:36.025Z,31.77
2023-01-07T12:31:43.684Z,31.67
2023-01-07T12:34:55.802Z,31.66
2023-01-07T12:38:05.205Z,32.07
2023-01-07T12:41:37.357Z,32.06
2023-01-07T12:44:47.575Z,31.92
2023-01-07T12:47:54.986Z,32.07
2023-01-07T12:50:59.400Z,32.03
2023-01-07T12:54:18.204Z,32.80
2023-01-07T12:57:33.973Z,31.88
2023-01-07T13:00:46.676Z,32.12
2023-01-07T13:03:51.739Z,32.50
2023-01-07T13:07:05.445Z,32.48
2023-01-07T13:10:16.622Z,32.02
2023-01-07T13:13:32.829Z,32.34
2023-01-07T13:16:34.530Z,34.75
2023-01-07T13:19:36.251Z,33.40
2023-01-07T13:22:45.446Z,33.87
2023-01-07T13:25:57.657Z,32.73
2023-01-07T13:29:11.413Z,33.48
2023-01-07T13:32:19.337Z,35.38
2023-01-07T13:35:46.840Z,39.52
2023-01-07T13:39:13.738Z,43.06
2023-01-07T13:42:29.835Z,45.86
2023-01-07T13:45:34.308Z,45.90
2023-01-07T13:48:38.423Z,46.22
2023-01-07T13:51:40.177Z,44.70
2023-01-07T13:54:50.697Z,42.59
2023-01-07T13:57:52.392Z,41.16
2023-01-07T14:01:09.139Z,40.89
2023-01-07T14:04:34.037Z,45.44
2023-01-07T14:07:47.620Z,49.21
2023-01-07T14:10:53.287Z,51.04
2023-01-07T14:14:21.355Z,52.64
2023-01-07T14:17:45.982Z,55.27
2023-01-07T14:20:50.648Z,56.56
2023-01-07T14:24:18.704Z,57.73
2023-01-07T14:27:35.447Z,59.02
2023-01-07T14:30:46.014Z,60.56
2023-01-07T14:33:52.236Z,62.26
2023-01-07T14:37:08.503Z,63.24
2023-01-07T14:40:34.272Z,64.75
2023-01-07T14:43:51.629Z,65.28
2023-01-07T14:46:54.316Z,66.79
2023-01-07T14:50:32.812Z,67.17
2023-01-07T14:53:46.446Z,68.07
2023-01-07T14:57:00.221Z,68.39
2023-01-07T15:00:28.917Z,69.71
2023-01-07T15:03:45.912Z,70.30
2023-01-07T15:06:48.402Z,70.36
2023-01-07T15:10:36.482Z,71.30
2023-01-07T15:14:02.107Z,71.78
2023-01-07T15:17:05.216Z,71.36
2023-01-07T15:20:07.517Z,71.90
2023-01-07T15:23:22.934Z,71.19
2023-01-07T15:26:42.922Z,71.66
2023-01-07T15:29:51.202Z,72.18
2023-01-07T15:33:09.414Z,72.77
2023-01-07T15:36:14.104Z,72.97
2023-01-07T15:39:23.984Z,73.41
2023-01-07T15:42:27.700Z,73.13
2023-01-07T15:45:29.879Z,72.85
2023-01-07T15:48:32.052Z,73.57
2023-01-07T15:51:40.472Z,73.56
2023-01-07T15:54:42.175Z,74.29
2023-01-07T15:57:44.129Z,73.69
2023-01-07T16:00:51.611Z,75.66
2023-01-07T16:03:57.387Z,76.39
2023-01-07T16:07:00.212Z,76.13
2023-01-07T16:10:02.232Z,77.47
2023-01-07T16:13:06.557Z,76.92
2023-01-07T16:16:15.678Z,76.41
2023-01-07T16:19:19.672Z,76.72
2023-01-07T16:22:23.534Z,76.89
2023-01-07T16:25:35.694Z,76.81
2023-01-07T16:28:40.495Z,76.82
2023-01-07T16:31:42.812Z,76.74
2023-01-07T16:35:09.175Z,76.95
2023-01-07T16:38:12.573Z,78.05
2023-01-07T16:41:22.841Z,78.40
2023-01-07T16:44:58.761Z,78.92
2023-01-07T16:48:21.322Z,78.68
2023-01-07T16:51:39.815Z,79.49
2023-01-07T16:54:44.286Z,79.90
2023-01-07T16:57:47.924Z,79.55
2023-01-07T17:00:52.135Z,79.24
2023-01-07T17:03:58.361Z,79.43
2023-01-07T17:07:01.514Z,79.25
2023-01-07T17:10:03.763Z,79.16
2023-01-07T17:13:08.371Z,78.27
2023-01-07T17:16:25.896Z,79.09
2023-01-07T17:19:36.348Z,79.49
2023-01-07T17:22:39.099Z,80.00
2023-01-07T17:25:41.010Z,80.51
2023-01-07T17:28:45.835Z,81.12
2023-01-07T17:31:48.031Z,81.33
2023-01-07T17:34:50.511Z,82.29
2023-01-07T17:37:53.620Z,82.06
2023-01-07T17:40:55.882Z,81.16
2023-01-07T17:43:57.927Z,82.00
2023-01-07T17:46:59.890Z,82.59
2023-01-07T17:50:01.701Z,82.97
2023-01-07T17:53:04.198Z,82.51
2023-01-07T17:56:06.221Z,82.24
2023-01-07T17:59:14.626Z,83.25
2023-01-07T18:02:25.732Z,82.94
2023-01-07T18:05:27.564Z,82.92
2023-01-07T18:08:29.291Z,82.96
2023-01-07T18:11:54.503Z,82.82
2023-01-07T18:15:01.431Z,82.83
2023-01-07T18:18:03.201Z,83.13
2023-01-07T18:21:04.970Z,83.73
2023-01-07T18:24:07.272Z,82.75
2023-01-07T18:27:14.772Z,84.59
2023-01-07T18:30:18.884Z,84.78
2023-01-07T18:33:20.533Z,84.61
2023-01-07T18:36:22.396Z,83.62
2023-01-07T18:39:24.292Z,83.06
2023-01-07T18:42:26.210Z,82.83
2023-01-07T18:45:27.966Z,83.62
2023-01-07T18:48:29.702Z,84.30
2023-01-07T18:51:31.496Z,83.79
2023-01-07T18:54:33.650Z,82.80
2023-01-07T18:57:35.804Z,82.85
2023-01-07T19:00:37.536Z,82.86
2023-01-07T19:03:39.431Z,83.77
2023-01-07T19:06:41.201Z,83.90
2023-01-07T19:09:43.548Z,84.03
2023-01-07T19:12:45.256Z,84.12
2023-01-07T19:15:46.968Z,83.88
2023-01-07T19:18:49.141Z,83.65
2023-01-07T19:21:50.836Z,83.14
2023-01-07T19:24:52.614Z,84.33
2023-01-07T19:27:54.401Z,83.23
2023-01-07T19:30:56.189Z,84.65
2023-01-07T19:33:57.953Z,84.18
2023-01-07T19:37:00.436Z,84.24
2023-01-07T19:40:02.201Z,84.51
2023-01-07T19:43:03.987Z,85.46
2023-01-07T19:46:07.929Z,86.44
2023-01-07T19:49:11.359Z,86.01
2023-01-07T19:52:13.722Z,85.87
2023-01-07T19:55:15.647Z,85.38
2023-01-07T19:58:18.000Z,83.20
2023-01-07T20:01:24.157Z,83.00
2023-01-07T20:04:27.287Z,83.61
2023-01-07T20:07:33.942Z,84.56
2023-01-07T20:10:35.757Z,85.03
2023-01-07T20:13:38.544Z,86.08
2023-01-07T20:16:41.720Z,87.46
2023-01-07T20:19:44.816Z,87.92
2023-01-07T20:22:47.157Z,87.57
2023-01-07T20:25:48.822Z,87.13
2023-01-07T20:28:51.160Z,86.69
2023-01-07T20:31:53.018Z,87.22
2023-01-07T20:34:54.697Z,87.24
2023-01-07T20:37:56.539Z,87.38
2023-01-07T20:40:58.330Z,88.18
2023-01-07T20:44:02.177Z,87.55
2023-01-07T20:47:04.840Z,87.08
2023-01-07T20:50:08.302Z,87.89
2023-01-07T20:53:11.337Z,88.64
2023-01-07T20:56:16.051Z,89.39
2023-01-07T20:59:17.915Z,89.63
2023-01-07T21:02:19.821Z,89.13
2023-01-07T21:05:24.367Z,88.70
2023-01-07T21:08:26.774Z,88.74
2023-01-07T21:11:28.537Z,88.72
2023-01-07T21:14:31.269Z,88.62
2023-01-07T21:17:33.007Z,88.25
2023-01-07T21:20:34.892Z,88.79
2023-01-07T21:23:36.672Z,89.48
2023-01-07T21:26:38.463Z,89.56
2023-01-07T21:29:40.157Z,88.62
2023-01-07T21:32:42.296Z,88.65
2023-01-07T21:35:44.022Z,88.79
2023-01-07T21:38:47.368Z,88.54
2023-01-07T21:41:49.438Z,88.12
2023-01-07T21:44:51.163Z,89.45
2023-01-07T21:47:52.845Z,88.84
2023-01-07T21:50:54.570Z,88.62
2023-01-07T21:53:57.646Z,88.31
2023-01-07T21:56:59.288Z,88.11
2023-01-07T22:00:00.921Z,87.56
2023-01-07T22:03:02.650Z,87.86
2023-01-07T22:06:15.278Z,87.16
2023-01-07T22:09:17.045Z,87.25
2023-01-07T22:12:31.082Z,87.61
2023-01-07T22:15:32.783Z,87.79
2023-01-07T22:18:34.775Z,87.13
2023-01-07T22:21:36.911Z,88.14
2023-01-07T22:24:38.617Z,88.73
2023-01-07T22:27:40.336Z,88.34
2023-01-07T22:30:47.247Z,87.44
2023-01-07T22:33:49.402Z,87.00
2023-01-07T22:36:59.905Z,87.03
2023-01-07T22:40:05.604Z,86.87
2023-01-07T22:43:12.152Z,87.02
2023-01-07T22:46:27.060Z,86.69
2023-01-07T22:49:30.454Z,87.83
2023-01-07T22:52:32.890Z,86.57
2023-01-07T22:55:35.036Z,87.67
2023-01-07T22:58:37.039Z,87.08
2023-01-07T23:01:39.868Z,88.23
2023-01-07T23:04:41.627Z,88.17
2023-01-07T23:07:43.272Z,89.56
2023-01-07T23:10:45.531Z,88.74
2023-01-07T23:13:47.213Z,88.43
2023-01-07T23:16:50.113Z,88.15
2023-01-07T23:19:52.034Z,88.54
2023-01-07T23:22:53.718Z,87.72
2023-01-07T23:25:55.427Z,87.43
2023-01-07T23:28:57.093Z,87.55
2023-01-07T23:31:58.859Z,88.27
2023-01-07T23:35:00.649Z,88.44
2023-01-07T23:38:03.830Z,88.83
2023-01-07T23:41:07.920Z,88.69
2023-01-07T23:44:09.602Z,88.93
2023-01-07T23:47:11.470Z,88.73
2023-01-07T23:50:13.310Z,89.75
2023-01-07T23:53:15.032Z,89.73
2023-01-07T23:56:21.030Z,89.35
2023-01-07T23:59:22.797Z,88.59
